»·PEaware :: N210AR L88-L90

N210AR :: L88-L90

FLIGHT INFORMATION

Flight Status: Arrived
Operator: Privately registered:
United States
More flights under this callsign
Pilot: Max S. (16657)
Aircraft: CESSNA 172 SKYHAWK
(C172)
More flights by this aircraft type
Origin: L88 New Cuyama
United States
Destination: L90 Ocotillo
United States
More flights between these airports :: More routes between these airports
Route:
File this flight plan on PilotEdge
Remarks: ALPHABET CHALLENGE
Altitude:
(Current/Filed)
7,500ft
Speed:
(Current/Filed)
100kts
Departed: 25-Apr-20 07:59 AM
Arrived: 25-Apr-20 10:04 AM
Distance/Time
Traveled:
207nm/2:04
Distance/Time
To Go:
Arrived

Flight Plot

Page will automatically refresh every two minutes.


Map Options




Map Legend


Flown Route
Filed Route
Departure Airport
Arrival Airport
Navaid (VOR, NDB)
Fix

Horizontal Profiles

Position Reports

Time Latitude Longitude Heading Altitude Ground
Speed
25-Apr-20 07:37 34.943535 -119.690701 15 2150ft 0kts
25-Apr-20 07:38 34.943535 -119.690701 15 2150ft 0kts
25-Apr-20 07:39 34.943535 -119.690701 15 2150ft 0kts
25-Apr-20 07:40 34.943535 -119.690701 15 2150ft 0kts
25-Apr-20 07:41 34.943535 -119.690701 15 2150ft 0kts
25-Apr-20 07:42 34.943535 -119.690701 15 2150ft 0kts
25-Apr-20 07:43 34.943535 -119.690701 15 2150ft 0kts
25-Apr-20 07:44 34.943535 -119.690701 15 2150ft 0kts
25-Apr-20 07:45 34.943535 -119.690701 15 2150ft 0kts
25-Apr-20 07:46 34.943535 -119.690701 15 2150ft 0kts
25-Apr-20 07:47 34.943535 -119.690701 15 2150ft 0kts
25-Apr-20 07:48 34.943535 -119.690701 15 2150ft 0kts
25-Apr-20 07:49 34.943535 -119.690701 15 2150ft 0kts
25-Apr-20 07:50 34.943535 -119.690701 15 2150ft 0kts
25-Apr-20 07:51 34.943535 -119.690701 15 2150ft 0kts
25-Apr-20 07:52 34.943193 -119.690982 188 2150ft 8kts
25-Apr-20 07:53 34.942674 -119.691234 213 2151ft 0kts
25-Apr-20 07:54 34.942674 -119.691234 213 2151ft 0kts
25-Apr-20 07:55 34.942674 -119.691234 213 2151ft 0kts
25-Apr-20 07:56 34.942674 -119.691234 213 2151ft 0kts
25-Apr-20 07:57 34.942674 -119.691234 213 2151ft 0kts
25-Apr-20 07:58 34.937168 -119.677305 104 2456ft 72kts
25-Apr-20 07:59 34.926143 -119.661589 207 3071ft 79kts
25-Apr-20 08:00 34.905149 -119.667357 159 3661ft 79kts
25-Apr-20 08:01 34.892678 -119.646186 93 4193ft 81kts
25-Apr-20 08:02 34.897181 -119.619747 81 4698ft 80kts
25-Apr-20 08:03 34.896334 -119.592618 100 5139ft 82kts
25-Apr-20 08:04 34.885806 -119.569156 140 5566ft 81kts
25-Apr-20 08:05 34.870490 -119.548482 130 5960ft 83kts
25-Apr-20 08:06 34.857278 -119.524874 127 6328ft 85kts
25-Apr-20 08:07 34.843715 -119.502482 124 6752ft 81kts
25-Apr-20 08:08 34.831479 -119.480456 127 7213ft 77kts
25-Apr-20 08:09 34.818543 -119.458976 108 7547ft 89kts
25-Apr-20 08:10 34.807810 -119.428916 121 7545ft 100kts
25-Apr-20 08:11 34.793472 -119.399798 123 7546ft 100kts
25-Apr-20 08:12 34.778704 -119.370678 123 7546ft 100kts
25-Apr-20 08:13 34.763915 -119.341669 121 7543ft 102kts
25-Apr-20 08:14 34.748551 -119.311405 121 7540ft 106kts
25-Apr-20 08:15 34.732922 -119.280748 122 7535ft 107kts
25-Apr-20 08:16 34.717218 -119.249968 122 7529ft 107kts
25-Apr-20 08:17 34.701558 -119.219300 122 7528ft 106kts
25-Apr-20 08:18 34.685858 -119.188735 123 7528ft 106kts
25-Apr-20 08:19 34.669839 -119.158554 123 7529ft 106kts
25-Apr-20 08:20 34.653957 -119.128120 123 7529ft 106kts
25-Apr-20 08:21 34.638218 -119.097522 123 7529ft 106kts
25-Apr-20 08:22 34.622584 -119.067015 123 7529ft 106kts
25-Apr-20 08:23 34.606928 -119.036453 123 7529ft 106kts
25-Apr-20 08:24 34.591324 -119.006004 123 7535ft 106kts
25-Apr-20 08:25 34.575672 -118.975483 123 7535ft 106kts
25-Apr-20 08:26 34.559929 -118.944811 123 7530ft 107kts
25-Apr-20 08:27 34.544122 -118.914037 122 7529ft 107kts
25-Apr-20 08:28 34.528294 -118.883241 122 7529ft 107kts
25-Apr-20 08:29 34.512403 -118.852366 122 7529ft 108kts
25-Apr-20 08:30 34.496233 -118.820948 122 7531ft 113kts
25-Apr-20 08:31 34.479193 -118.787889 121 7531ft 116kts
25-Apr-20 08:32 34.462020 -118.754609 121 7540ft 116kts
25-Apr-20 08:33 34.444826 -118.721314 121 7549ft 116kts
25-Apr-20 08:34 34.427680 -118.688153 121 7558ft 116kts
25-Apr-20 08:36 34.410951 -118.654642 115 7567ft 116kts
25-Apr-20 08:37 34.395301 -118.620629 119 7575ft 115kts
25-Apr-20 08:38 34.378540 -118.587303 120 7580ft 115kts
25-Apr-20 08:39 34.361477 -118.554159 120 7582ft 115kts
25-Apr-20 08:40 34.347359 -118.526909 120 7579ft 116kts
25-Apr-20 08:41 34.330181 -118.493828 120 7574ft 116kts
25-Apr-20 08:42 34.316933 -118.468354 119 7570ft 115kts
25-Apr-20 08:43 34.301496 -118.438680 119 7566ft 115kts
25-Apr-20 08:44 34.284382 -118.405822 119 7561ft 115kts
25-Apr-20 08:45 34.269082 -118.372072 110 7556ft 114kts
25-Apr-20 08:46 34.257506 -118.337239 107 7553ft 113kts
25-Apr-20 08:47 34.247515 -118.301148 106 7550ft 113kts
25-Apr-20 08:48 34.236966 -118.265348 107 7547ft 113kts
25-Apr-20 08:49 34.226210 -118.229488 107 7547ft 113kts
25-Apr-20 08:50 34.215372 -118.193432 107 7547ft 114kts
25-Apr-20 08:51 34.204487 -118.157266 108 7547ft 114kts
25-Apr-20 08:52 34.193570 -118.121040 108 7547ft 115kts
25-Apr-20 08:52 34.184542 -118.091097 108 7560ft 115kts
25-Apr-20 08:54 34.171578 -118.048214 108 7508ft 117kts
25-Apr-20 08:54 34.162368 -118.017759 108 7513ft 115kts
25-Apr-20 08:55 34.151356 -117.981383 108 7516ft 115kts
25-Apr-20 08:57 34.138594 -117.939287 108 7519ft 115kts
25-Apr-20 08:57 34.129476 -117.909247 108 7522ft 115kts
25-Apr-20 08:58 34.118525 -117.873212 108 7525ft 115kts
25-Apr-20 09:00 34.105720 -117.831128 108 7527ft 115kts
25-Apr-20 09:00 34.096575 -117.801112 108 7527ft 115kts
25-Apr-20 09:01 34.085430 -117.767529 117 7525ft 116kts
25-Apr-20 09:02 34.070597 -117.739275 122 7523ft 116kts
25-Apr-20 09:03 34.053624 -117.708767 122 7522ft 116kts
25-Apr-20 09:04 34.034388 -117.674310 122 7521ft 116kts
25-Apr-20 09:05 34.016224 -117.641825 122 7521ft 116kts
25-Apr-20 09:06 33.998129 -117.609490 122 7523ft 116kts
25-Apr-20 09:07 33.980010 -117.577142 122 7524ft 116kts
25-Apr-20 09:08 33.961838 -117.544728 122 7525ft 116kts
25-Apr-20 09:09 33.946163 -117.516792 122 7525ft 116kts
25-Apr-20 09:10 33.935804 -117.498333 122 7524ft 116kts
25-Apr-20 09:11 33.924203 -117.477675 122 7523ft 116kts
25-Apr-20 09:12 33.905966 -117.445230 122 7523ft 116kts
25-Apr-20 09:13 33.887791 -117.412933 122 7524ft 116kts
25-Apr-20 09:14 33.869570 -117.380578 122 7526ft 116kts
25-Apr-20 09:15 33.851420 -117.348378 122 7530ft 116kts
25-Apr-20 09:16 33.833329 -117.316308 122 7535ft 115kts
25-Apr-20 09:17 33.816093 -117.283891 118 7540ft 114kts
25-Apr-20 09:18 33.799416 -117.251329 123 7543ft 114kts
25-Apr-20 09:19 33.781783 -117.219167 126 7548ft 116kts
25-Apr-20 09:20 33.763673 -117.186914 125 7551ft 116kts
25-Apr-20 09:21 33.745399 -117.154529 125 7553ft 117kts
25-Apr-20 09:22 33.727004 -117.121996 125 7554ft 118kts
25-Apr-20 09:23 33.708551 -117.089393 125 7555ft 118kts
25-Apr-20 09:24 33.690095 -117.056814 125 7555ft 117kts
25-Apr-20 09:25 33.671674 -117.024351 125 7555ft 117kts
25-Apr-20 09:26 33.653233 -116.991856 125 7555ft 117kts
25-Apr-20 09:27 33.634847 -116.959491 125 7555ft 117kts
25-Apr-20 09:28 33.616523 -116.927266 125 7555ft 117kts
25-Apr-20 09:29 33.598117 -116.894925 125 7555ft 117kts
25-Apr-20 09:30 33.579794 -116.862761 125 7552ft 117kts
25-Apr-20 09:31 33.561377 -116.830461 125 7544ft 117kts
25-Apr-20 09:32 33.542928 -116.798130 124 7537ft 117kts
25-Apr-20 09:33 33.524375 -116.765643 124 7530ft 117kts
25-Apr-20 09:34 33.505904 -116.733328 124 7522ft 117kts
25-Apr-20 09:35 33.487372 -116.700929 124 7515ft 117kts
25-Apr-20 09:36 33.468848 -116.668581 123 7507ft 117kts
25-Apr-20 09:37 33.450322 -116.636256 123 7500ft 117kts
25-Apr-20 09:38 33.431390 -116.604487 128 7495ft 117kts
25-Apr-20 09:39 33.413711 -116.579043 127 7493ft 112kts
25-Apr-20 09:40 33.395653 -116.548844 124 7491ft 110kts
25-Apr-20 09:41 33.380715 -116.522996 124 7487ft 110kts
25-Apr-20 09:42 33.363177 -116.492603 124 7482ft 112kts
25-Apr-20 09:43 33.344981 -116.461075 124 7474ft 116kts
25-Apr-20 09:44 33.326471 -116.429048 124 7465ft 117kts
25-Apr-20 09:45 33.307880 -116.396908 124 7455ft 117kts
25-Apr-20 09:46 33.289029 -116.364384 124 7199ft 122kts
25-Apr-20 09:47 33.270100 -116.331757 124 6669ft 115kts
25-Apr-20 09:48 33.252633 -116.301604 125 6155ft 102kts
25-Apr-20 09:49 33.237080 -116.274824 124 5646ft 96kts
25-Apr-20 09:50 33.221838 -116.248573 124 5145ft 96kts
25-Apr-20 09:51 33.206502 -116.222183 124 4647ft 97kts
25-Apr-20 09:52 33.191025 -116.195558 124 4149ft 98kts
25-Apr-20 09:53 33.173045 -116.171383 156 3655ft 98kts
25-Apr-20 09:54 33.146858 -116.163069 163 3142ft 104kts
25-Apr-20 09:55 33.120998 -116.148933 150 2408ft 103kts
25-Apr-20 09:56 33.097464 -116.131092 118 1655ft 102kts
25-Apr-20 09:57 33.105353 -116.102045 56 992ft 90kts
25-Apr-20 09:58 33.122189 -116.103119 334 844ft 81kts
25-Apr-20 09:59 33.142637 -116.114622 334 747ft 81kts
25-Apr-20 10:00 33.162289 -116.126873 333 688ft 75kts
25-Apr-20 10:01 33.165338 -116.142640 205 536ft 78kts
25-Apr-20 10:02 33.147816 -116.131369 146 164ft 46kts
25-Apr-20 10:03 33.144748 -116.128916 141 164ft 6kts
25-Apr-20 10:04 33.143717 -116.128481 3 164ft 0kts
25-Apr-20 10:05 33.143717 -116.128481 4 164ft 0kts
25-Apr-20 10:06 33.143717 -116.128481 4 164ft 0kts
25-Apr-20 10:07 33.143717 -116.128481 4 164ft 0kts
25-Apr-20 10:08 33.143717 -116.128481 4 164ft 0kts

Navigation Log

Ident Type
Flight plan parsing failed, navigation log unavailable